Time;durP1;ratioP1;P1;durP2;ratioP2;P2;SDS_P1;SDS_P2;PMS_P1;PMS_P2;Temp;Humidity;BMP_temperature;BMP_pressure;BME280_temperature;BME280_humidity;BME280_pressure;Samples;Min_cycle;Max_cycle;Signal;HPM_P1;HPM_P2
2022/12/12 00:00:58;;;;;;;22.00;13.45;;;;;;;;;;5117014;28;20275;-60
2022/12/12 00:03:25;;;;;;;20.02;13.55;;;;;;;;;;5116899;28;20189;-60
2022/12/12 00:05:53;;;;;;;22.15;12.77;;;;;;;;;;5116833;28;20188;-60
2022/12/12 00:08:20;;;;;;;19.92;13.65;;;;;;;;;;5116595;28;20674;-60
2022/12/12 00:10:47;;;;;;;23.85;14.25;;;;;;;;;;5116558;28;20195;-60
2022/12/12 00:13:15;;;;;;;19.40;12.68;;;;;;;;;;5116873;28;20195;-60
2022/12/12 00:15:42;;;;;;;19.45;13.10;;;;;;;;;;5116681;28;20287;-60
2022/12/12 00:18:09;;;;;;;26.17;13.52;;;;;;;;;;5116411;28;20256;-60
2022/12/12 00:20:36;;;;;;;23.80;14.30;;;;;;;;;;5116484;28;20188;-60
2022/12/12 00:23:03;;;;;;;25.65;14.25;;;;;;;;;;5116396;28;20185;-60
2022/12/12 00:25:30;;;;;;;21.63;13.73;;;;;;;;;;5116320;28;20185;-60
2022/12/12 00:27:58;;;;;;;20.42;13.30;;;;;;;;;;5116362;28;20323;-60
2022/12/12 00:30:27;;;;;;;23.10;14.27;;;;;;;;;;5116426;28;20221;-60
2022/12/12 00:32:54;;;;;;;18.45;12.32;;;;;;;;;;5116219;28;20211;-60
2022/12/12 00:35:21;;;;;;;25.75;13.43;;;;;;;;;;5116188;28;20195;-60
2022/12/12 00:37:48;;;;;;;18.27;13.05;;;;;;;;;;5116035;28;20185;-60
2022/12/12 00:40:15;;;;;;;19.23;12.13;;;;;;;;;;5114934;28;20645;-60
2022/12/12 00:42:41;;;;;;;21.77;14.25;;;;;;;;;;5116157;28;20280;-60
2022/12/12 00:45:09;;;;;;;18.15;12.77;;;;;;;;;;5116063;28;20271;-60
2022/12/12 00:47:37;;;;;;;22.10;13.38;;;;;;;;;;5115695;28;20228;-60
2022/12/12 00:50:04;;;;;;;22.83;13.30;;;;;;;;;;5115870;28;20279;-60
2022/12/12 00:52:31;;;;;;;21.40;12.85;;;;;;;;;;5116237;28;20185;-60
2022/12/12 00:54:58;;;;;;;24.58;15.32;;;;;;;;;;5115979;28;20188;-60
2022/12/12 00:57:25;;;;;;;19.58;13.55;;;;;;;;;;5115871;28;20196;-60
2022/12/12 00:59:52;;;;;;;20.20;13.95;;;;;;;;;;5115796;28;20221;-60
2022/12/12 01:02:20;;;;;;;22.77;13.45;;;;;;;;;;5115698;28;20188;-60
2022/12/12 01:04:48;;;;;;;21.90;14.07;;;;;;;;;;5115615;28;20189;-60
2022/12/12 01:07:15;;;;;;;20.98;12.98;;;;;;;;;;5115415;28;20213;-60
2022/12/12 01:09:41;;;;;;;22.95;14.20;;;;;;;;;;5115697;28;20616;-60
2022/12/12 01:12:08;;;;;;;21.73;14.40;;;;;;;;;;5115570;28;20185;-60
2022/12/12 01:14:35;;;;;;;24.58;15.02;;;;;;;;;;5115808;28;20189;-60
2022/12/12 01:17:02;;;;;;;28.25;15.02;;;;;;;;;;5115392;28;20200;-60
2022/12/12 01:19:29;;;;;;;24.08;14.93;;;;;;;;;;5115170;28;20197;-60
2022/12/12 01:21:57;;;;;;;24.00;14.57;;;;;;;;;;5115494;28;20189;-60
2022/12/12 01:24:24;;;;;;;21.20;13.20;;;;;;;;;;5115416;28;20283;-61
2022/12/12 01:26:51;;;;;;;22.52;14.45;;;;;;;;;;5115144;28;20216;-61
2022/12/12 01:29:19;;;;;;;22.98;14.43;;;;;;;;;;5115220;28;20285;-60
2022/12/12 01:31:46;;;;;;;21.73;13.75;;;;;;;;;;5115045;28;20184;-61
2022/12/12 01:34:13;;;;;;;21.00;13.30;;;;;;;;;;5114943;28;20189;-61
2022/12/12 01:36:39;;;;;;;23.90;14.55;;;;;;;;;;5114960;28;20739;-60
2022/12/12 01:39:08;;;;;;;22.77;14.95;;;;;;;;;;5115041;28;20246;-60
2022/12/12 01:41:34;;;;;;;26.30;13.40;;;;;;;;;;5114998;28;20192;-60
2022/12/12 01:44:02;;;;;;;21.95;13.38;;;;;;;;;;5114923;28;20191;-60
2022/12/12 01:46:32;;;;;;;21.88;13.20;;;;;;;;;;5114569;28;20224;-61
2022/12/12 01:49:00;;;;;;;23.30;14.80;;;;;;;;;;5114622;28;20200;-60
2022/12/12 01:51:29;;;;;;;22.10;13.45;;;;;;;;;;5114714;28;20196;-61
2022/12/12 01:54:00;;;;;;;24.20;13.23;;;;;;;;;;5114730;28;20189;-61
2022/12/12 01:56:29;;;;;;;24.60;13.90;;;;;;;;;;5114561;28;20643;-60
2022/12/12 01:58:56;;;;;;;20.35;12.63;;;;;;;;;;5114539;28;20196;-60
2022/12/12 02:01:23;;;;;;;23.70;14.70;;;;;;;;;;5114427;28;20189;-60
2022/12/12 02:03:50;;;;;;;23.25;13.82;;;;;;;;;;5114404;28;20678;-60
2022/12/12 02:06:18;;;;;;;22.75;13.50;;;;;;;;;;5114481;28;20184;-60
2022/12/12 02:08:46;;;;;;;21.75;13.55;;;;;;;;;;5114345;28;20220;-60
2022/12/12 02:11:13;;;;;;;25.58;13.07;;;;;;;;;;5114412;28;20623;-60
2022/12/12 02:13:41;;;;;;;21.98;13.77;;;;;;;;;;5114212;28;20287;-60
2022/12/12 02:16:13;;;;;;;23.00;13.52;;;;;;;;;;5114491;28;20193;-60
2022/12/12 02:18:45;;;;;;;21.27;13.00;;;;;;;;;;5114313;28;20286;-60
2022/12/12 02:21:17;;;;;;;24.02;14.35;;;;;;;;;;5114123;28;20192;-60
2022/12/12 02:23:51;;;;;;;22.65;13.15;;;;;;;;;;5114135;28;20280;-60
2022/12/12 02:26:29;;;;;;;18.38;11.80;;;;;;;;;;5113997;28;20280;-60
2022/12/12 02:29:09;;;;;;;19.58;13.00;;;;;;;;;;5114167;28;20248;-60
2022/12/12 02:31:39;;;;;;;21.75;13.50;;;;;;;;;;5114088;28;20192;-60
2022/12/12 02:34:11;;;;;;;23.30;12.73;;;;;;;;;;5113930;28;20275;-60
2022/12/12 02:36:43;;;;;;;20.20;12.00;;;;;;;;;;5113797;28;20198;-60
2022/12/12 02:39:16;;;;;;;17.58;11.25;;;;;;;;;;5114033;28;20196;-60
2022/12/12 02:41:44;;;;;;;20.25;11.15;;;;;;;;;;5114003;28;20207;-60
2022/12/12 02:44:15;;;;;;;23.38;12.75;;;;;;;;;;5113749;28;20189;-60
2022/12/12 02:46:46;;;;;;;22.15;12.55;;;;;;;;;;5113575;28;20273;-60
2022/12/12 02:49:15;;;;;;;22.30;12.90;;;;;;;;;;5113508;28;20216;-60
2022/12/12 02:51:42;;;;;;;21.15;11.80;;;;;;;;;;5113903;28;20618;-60
2022/12/12 02:54:15;;;;;;;22.00;11.45;;;;;;;;;;5113676;28;20230;-60
2022/12/12 02:56:53;;;;;;;22.08;12.20;;;;;;;;;;5113724;28;20199;-60
2022/12/12 02:59:22;;;;;;;22.80;12.45;;;;;;;;;;5113513;28;20223;-60
2022/12/12 03:01:56;;;;;;;21.30;11.57;;;;;;;;;;5112932;28;20275;-60
2022/12/12 03:10:08;;;;;;;18.95;10.95;;;;;;;;;;5113401;28;20196;-60
2022/12/12 03:12:40;;;;;;;22.45;10.93;;;;;;;;;;5113557;28;20186;-60
2022/12/12 03:15:13;;;;;;;18.60;11.80;;;;;;;;;;5113504;28;20188;-60
2022/12/12 03:17:43;;;;;;;20.00;11.70;;;;;;;;;;5113416;28;20280;-60
2022/12/12 03:20:14;;;;;;;20.00;11.23;;;;;;;;;;5113333;28;20192;-60
2022/12/12 03:22:44;;;;;;;20.05;10.65;;;;;;;;;;5113231;28;20558;-60
2022/12/12 03:25:14;;;;;;;18.75;11.45;;;;;;;;;;5113541;28;20394;-60
2022/12/12 03:27:45;;;;;;;20.92;12.60;;;;;;;;;;5113329;28;20304;-60
2022/12/12 03:30:13;;;;;;;22.10;12.65;;;;;;;;;;5113399;28;20276;-60
2022/12/12 03:32:43;;;;;;;19.58;12.35;;;;;;;;;;5113214;28;20197;-60
2022/12/12 03:35:12;;;;;;;17.65;12.02;;;;;;;;;;5113143;28;20291;-60
2022/12/12 03:37:42;;;;;;;18.15;11.73;;;;;;;;;;5113372;28;20197;-60
2022/12/12 03:40:10;;;;;;;18.90;12.43;;;;;;;;;;5113262;28;20360;-60
2022/12/12 03:42:41;;;;;;;21.88;12.35;;;;;;;;;;5113238;28;20185;-60
2022/12/12 03:45:11;;;;;;;18.25;11.80;;;;;;;;;;5113155;28;20193;-60
2022/12/12 03:47:39;;;;;;;19.98;11.48;;;;;;;;;;5112832;28;20224;-60
2022/12/12 03:50:11;;;;;;;23.10;13.10;;;;;;;;;;5113379;28;20189;-60
2022/12/12 03:52:39;;;;;;;24.55;13.13;;;;;;;;;;5113178;28;20193;-60
2022/12/12 03:55:09;;;;;;;22.90;13.52;;;;;;;;;;5113056;28;20189;-60
2022/12/12 03:57:38;;;;;;;20.75;12.60;;;;;;;;;;5112947;28;20276;-60
2022/12/12 04:00:06;;;;;;;25.02;13.63;;;;;;;;;;5112901;28;20533;-60
2022/12/12 04:02:35;;;;;;;21.33;12.32;;;;;;;;;;5113138;28;20617;-60
2022/12/12 04:05:07;;;;;;;22.35;11.90;;;;;;;;;;5113070;28;20188;-60
2022/12/12 04:07:38;;;;;;;24.23;12.65;;;;;;;;;;5112904;28;20279;-60
2022/12/12 04:13:02;;;;;;;35.95;23.27;;;;;;;;;;5112871;28;20192;-60
2022/12/12 04:15:45;;;;;;;27.40;19.35;;;;;;;;;;5116779;28;20556;-60
2022/12/12 04:18:15;;;;;;;19.08;12.40;;;;;;;;;;5116579;28;20194;-60
2022/12/12 04:23:32;;;;;;;21.98;12.57;;;;;;;;;;5116437;28;20199;-60
2022/12/12 04:28:56;;;;;;;29.55;17.58;;;;;;;;;;5116545;28;20215;-61
2022/12/12 04:31:26;;;;;;;30.60;16.92;;;;;;;;;;5116237;28;20199;-60
2022/12/12 04:33:55;;;;;;;30.92;17.58;;;;;;;;;;5116351;28;20185;-60
2022/12/12 04:36:23;;;;;;;26.98;15.85;;;;;;;;;;5116323;28;20189;-60
2022/12/12 04:38:52;;;;;;;100.82;47.75;;;;;;;;;;5116056;28;20284;-60
2022/12/12 04:41:19;;;;;;;62.60;33.35;;;;;;;;;;5116016;28;20195;-60
2022/12/12 04:43:47;;;;;;;52.65;23.10;;;;;;;;;;5115939;28;20189;-60
2022/12/12 04:46:16;;;;;;;31.25;16.02;;;;;;;;;;5115946;28;20335;-60
2022/12/12 04:48:46;;;;;;;25.02;14.95;;;;;;;;;;5115912;28;20307;-60
2022/12/12 04:51:14;;;;;;;20.55;12.00;;;;;;;;;;5115975;28;20200;-60
2022/12/12 04:53:44;;;;;;;18.25;9.52;;;;;;;;;;5115836;28;20280;-60
2022/12/12 04:56:14;;;;;;;19.13;10.60;;;;;;;;;;5115709;28;20283;-60
2022/12/12 04:58:41;;;;;;;20.63;12.20;;;;;;;;;;5115592;28;20646;-60
2022/12/12 05:01:10;;;;;;;18.52;10.65;;;;;;;;;;5115780;28;20276;-60
2022/12/12 05:03:41;;;;;;;15.68;11.18;;;;;;;;;;5115759;28;20188;-60
2022/12/12 05:06:10;;;;;;;18.70;10.40;;;;;;;;;;5115680;28;20283;-60
2022/12/12 05:08:39;;;;;;;16.73;10.82;;;;;;;;;;5115407;28;20216;-61
2022/12/12 05:11:06;;;;;;;17.13;10.27;;;;;;;;;;5115772;28;20284;-60
2022/12/12 05:13:36;;;;;;;17.42;10.88;;;;;;;;;;5115486;28;20244;-60
2022/12/12 05:16:07;;;;;;;18.65;9.95;;;;;;;;;;5115554;28;20192;-60
2022/12/12 05:18:34;;;;;;;19.45;9.90;;;;;;;;;;5115435;28;20192;-60
2022/12/12 05:21:01;;;;;;;14.30;9.07;;;;;;;;;;5115334;28;20185;-60
2022/12/12 05:23:28;;;;;;;15.07;9.55;;;;;;;;;;5115189;28;20609;-60
2022/12/12 05:25:56;;;;;;;13.55;8.77;;;;;;;;;;5114845;28;20188;-60
2022/12/12 05:28:23;;;;;;;18.10;10.57;;;;;;;;;;5115218;28;20212;-60
2022/12/12 05:30:51;;;;;;;13.20;9.40;;;;;;;;;;5115182;28;20196;-60
2022/12/12 05:33:18;;;;;;;12.13;7.72;;;;;;;;;;5115142;28;20192;-60
2022/12/12 05:35:45;;;;;;;12.82;9.02;;;;;;;;;;5115037;28;20199;-60
2022/12/12 05:38:12;;;;;;;11.75;8.05;;;;;;;;;;5114858;28;20280;-60
2022/12/12 05:40:39;;;;;;;13.48;8.50;;;;;;;;;;5114977;28;20197;-60
2022/12/12 05:43:06;;;;;;;14.70;10.20;;;;;;;;;;5114962;28;20279;-60
2022/12/12 05:45:34;;;;;;;19.17;10.75;;;;;;;;;;5114752;28;20190;-60
2022/12/12 05:48:02;;;;;;;13.07;10.30;;;;;;;;;;5114448;28;20308;-60
2022/12/12 05:50:29;;;;;;;15.98;10.00;;;;;;;;;;5114590;28;20675;-60
2022/12/12 05:52:56;;;;;;;12.82;8.85;;;;;;;;;;5114548;28;20194;-60
2022/12/12 05:55:23;;;;;;;14.13;9.25;;;;;;;;;;5114661;28;20184;-60
2022/12/12 05:57:50;;;;;;;10.18;8.52;;;;;;;;;;5114555;28;20199;-60
2022/12/12 06:00:17;;;;;;;10.93;8.63;;;;;;;;;;5114585;28;20559;-60
2022/12/12 06:02:44;;;;;;;14.82;8.85;;;;;;;;;;5114475;28;20191;-60
2022/12/12 06:05:12;;;;;;;13.15;9.38;;;;;;;;;;5114347;28;20727;-60
2022/12/12 06:07:39;;;;;;;12.23;9.80;;;;;;;;;;5114531;28;20292;-60
2022/12/12 06:10:06;;;;;;;11.73;8.75;;;;;;;;;;5114169;28;20224;-60
2022/12/12 06:12:33;;;;;;;14.63;8.82;;;;;;;;;;5114187;28;20283;-60
2022/12/12 06:15:02;;;;;;;9.80;7.13;;;;;;;;;;5114066;28;20276;-60
2022/12/12 06:17:29;;;;;;;11.70;8.20;;;;;;;;;;5113871;28;20648;-60
2022/12/12 06:19:55;;;;;;;9.93;7.72;;;;;;;;;;5114165;28;20287;-60
2022/12/12 06:22:24;;;;;;;13.10;8.80;;;;;;;;;;5114003;28;20284;-60
2022/12/12 06:24:51;;;;;;;10.73;6.82;;;;;;;;;;5114041;28;20279;-60
2022/12/12 06:27:19;;;;;;;9.93;8.07;;;;;;;;;;5113962;28;20291;-60
2022/12/12 06:29:46;;;;;;;14.05;8.00;;;;;;;;;;5113791;28;20220;-60
2022/12/12 06:32:13;;;;;;;10.13;7.38;;;;;;;;;;5113679;28;20342;-60
2022/12/12 06:34:39;;;;;;;10.30;7.03;;;;;;;;;;5113911;28;20650;-60
2022/12/12 06:37:07;;;;;;;10.63;7.95;;;;;;;;;;5113047;28;20281;-60
2022/12/12 06:39:38;;;;;;;11.15;6.80;;;;;;;;;;5113727;28;20265;-60
2022/12/12 06:42:05;;;;;;;8.45;6.90;;;;;;;;;;5113785;28;20198;-60
2022/12/12 06:44:32;;;;;;;12.75;7.70;;;;;;;;;;5113453;28;20669;-60
2022/12/12 06:46:59;;;;;;;7.43;6.63;;;;;;;;;;5113452;28;20249;-60
2022/12/12 06:49:26;;;;;;;10.65;7.30;;;;;;;;;;5113576;28;20230;-60
2022/12/12 06:51:53;;;;;;;7.70;6.25;;;;;;;;;;5113486;28;20203;-60
2022/12/12 06:54:20;;;;;;;8.68;7.70;;;;;;;;;;5113486;28;20281;-61
2022/12/12 06:56:48;;;;;;;9.82;7.20;;;;;;;;;;5113391;28;20242;-60
2022/12/12 06:59:16;;;;;;;9.73;7.20;;;;;;;;;;5113310;28;20197;-60
2022/12/12 07:01:43;;;;;;;11.80;8.95;;;;;;;;;;5113406;28;20555;-61
2022/12/12 07:04:10;;;;;;;10.93;9.00;;;;;;;;;;5113422;28;20287;-60
2022/12/12 07:06:37;;;;;;;8.98;7.85;;;;;;;;;;5113366;28;20284;-60
2022/12/12 07:09:04;;;;;;;9.18;6.57;;;;;;;;;;5113181;28;20212;-60
2022/12/12 07:11:32;;;;;;;7.97;7.10;;;;;;;;;;5113117;28;20280;-61
2022/12/12 07:14:02;;;;;;;6.10;5.43;;;;;;;;;;5113268;28;20712;-60
2022/12/12 07:16:29;;;;;;;7.80;6.80;;;;;;;;;;5113217;28;20554;-60
2022/12/12 07:18:56;;;;;;;7.68;6.50;;;;;;;;;;5113181;28;20195;-60
2022/12/12 07:21:23;;;;;;;8.73;7.45;;;;;;;;;;5113101;28;20189;-60
2022/12/12 07:23:50;;;;;;;8.20;7.40;;;;;;;;;;5113159;28;20199;-60
2022/12/12 07:26:17;;;;;;;7.40;6.70;;;;;;;;;;5113170;28;20240;-61
2022/12/12 07:28:45;;;;;;;8.85;6.00;;;;;;;;;;5113221;28;20227;-61
2022/12/12 07:31:14;;;;;;;9.57;7.00;;;;;;;;;;5113303;28;20283;-60
2022/12/12 07:33:41;;;;;;;6.95;6.25;;;;;;;;;;5113159;28;20188;-60
2022/12/12 07:36:08;;;;;;;8.48;7.05;;;;;;;;;;5113055;28;20184;-60
2022/12/12 07:38:36;;;;;;;9.57;7.68;;;;;;;;;;5112882;28;20275;-60
2022/12/12 07:41:03;;;;;;;10.88;8.40;;;;;;;;;;5112854;28;20193;-60
2022/12/12 07:43:30;;;;;;;11.82;9.98;;;;;;;;;;5113163;28;20278;-60
2022/12/12 07:45:57;;;;;;;9.82;8.57;;;;;;;;;;5112742;28;20188;-60
2022/12/12 07:48:25;;;;;;;9.25;8.35;;;;;;;;;;5113897;28;20189;-60
2022/12/12 07:50:54;;;;;;;8.90;8.00;;;;;;;;;;5116813;28;20310;-60
2022/12/12 07:53:21;;;;;;;7.47;6.75;;;;;;;;;;5116712;28;20193;-60
2022/12/12 07:55:48;;;;;;;8.70;6.65;;;;;;;;;;5117069;28;20184;-60
2022/12/12 07:58:14;;;;;;;7.22;6.40;;;;;;;;;;5116672;28;20184;-60
2022/12/12 08:00:41;;;;;;;7.88;7.18;;;;;;;;;;5116645;28;20622;-60
2022/12/12 08:03:08;;;;;;;7.03;6.32;;;;;;;;;;5116707;28;20271;-60
2022/12/12 08:05:39;;;;;;;5.53;4.85;;;;;;;;;;5116623;28;20277;-60
2022/12/12 08:08:06;;;;;;;8.68;7.88;;;;;;;;;;5116434;28;20688;-60
2022/12/12 08:10:33;;;;;;;5.50;5.00;;;;;;;;;;5116569;28;20216;-60
2022/12/12 08:13:00;;;;;;;5.60;5.10;;;;;;;;;;5116629;28;20279;-60
2022/12/12 08:15:26;;;;;;;6.25;5.75;;;;;;;;;;5116526;28;20275;-60
2022/12/12 08:17:54;;;;;;;6.45;5.63;;;;;;;;;;5116368;28;20265;-60
2022/12/12 08:20:21;;;;;;;6.25;5.35;;;;;;;;;;5116159;28;20201;-60
2022/12/12 08:22:49;;;;;;;6.10;4.95;;;;;;;;;;5116605;28;20212;-60
2022/12/12 08:25:16;;;;;;;6.20;5.60;;;;;;;;;;5116076;28;20547;-60
2022/12/12 08:27:43;;;;;;;5.75;5.05;;;;;;;;;;5116231;28;20188;-67
2022/12/12 08:30:10;;;;;;;6.05;5.55;;;;;;;;;;5115480;28;20687;-63
2022/12/12 08:32:40;;;;;;;5.97;5.45;;;;;;;;;;5115609;28;20199;-65
2022/12/12 08:35:07;;;;;;;6.35;5.75;;;;;;;;;;5115908;28;20195;-64
2022/12/12 08:37:34;;;;;;;5.90;5.28;;;;;;;;;;5115909;28;20195;-62
2022/12/12 08:40:02;;;;;;;5.82;4.53;;;;;;;;;;5115040;28;20219;-63
2022/12/12 08:42:29;;;;;;;5.65;5.07;;;;;;;;;;5114584;27;20258;-62
2022/12/12 08:44:56;;;;;;;5.97;5.45;;;;;;;;;;5124592;27;20195;-71
2022/12/12 08:47:23;;;;;;;4.97;4.57;;;;;;;;;;5135325;27;20302;-64
2022/12/12 08:49:50;;;;;;;7.28;6.47;;;;;;;;;;5128558;27;20571;-64
2022/12/12 08:52:16;;;;;;;7.82;5.57;;;;;;;;;;5135312;27;20184;-64
2022/12/12 08:54:43;;;;;;;5.95;5.45;;;;;;;;;;5110747;27;20194;-63
2022/12/12 08:57:12;;;;;;;6.68;5.93;;;;;;;;;;5103657;28;20351;-66
2022/12/12 08:59:38;;;;;;;6.32;5.72;;;;;;;;;;5111454;28;20190;-62
2022/12/12 09:02:05;;;;;;;6.72;6.03;;;;;;;;;;5115161;28;20188;-63
2022/12/12 09:04:34;;;;;;;6.95;5.40;;;;;;;;;;5106075;28;20619;-64
2022/12/12 09:07:01;;;;;;;6.40;5.80;;;;;;;;;;5095076;28;20200;-60
2022/12/12 09:09:28;;;;;;;6.78;6.13;;;;;;;;;;5107543;28;20224;-71
2022/12/12 09:11:56;;;;;;;6.18;5.53;;;;;;;;;;5105632;28;20653;-61
2022/12/12 09:14:25;;;;;;;8.50;6.60;;;;;;;;;;5104822;28;20616;-72
2022/12/12 09:16:52;;;;;;;7.80;6.60;;;;;;;;;;5096181;28;20190;-65
2022/12/12 09:19:19;;;;;;;6.20;5.60;;;;;;;;;;5094784;28;20244;-65
2022/12/12 09:21:46;;;;;;;7.13;6.43;;;;;;;;;;5104918;28;20279;-69
2022/12/12 09:24:14;;;;;;;6.18;5.57;;;;;;;;;;5115143;28;20200;-66
2022/12/12 09:26:41;;;;;;;7.93;6.20;;;;;;;;;;5115048;28;20288;-69
2022/12/12 09:29:08;;;;;;;8.02;5.47;;;;;;;;;;5109709;28;20183;-64
2022/12/12 09:31:36;;;;;;;6.40;5.80;;;;;;;;;;5105320;28;20189;-63
2022/12/12 09:34:03;;;;;;;6.03;5.43;;;;;;;;;;5103802;28;20265;-67
2022/12/12 09:36:30;;;;;;;5.20;4.70;;;;;;;;;;5103594;28;20187;-68
2022/12/12 09:38:57;;;;;;;9.57;5.20;;;;;;;;;;5105170;28;20185;-66
2022/12/12 09:41:25;;;;;;;6.00;5.40;;;;;;;;;;5112484;28;20195;-69
2022/12/12 09:43:56;;;;;;;7.35;6.45;;;;;;;;;;5114508;28;20208;-67
2022/12/12 09:46:34;;;;;;;6.80;6.10;;;;;;;;;;5102824;28;20219;-64
2022/12/12 09:49:07;;;;;;;7.90;6.70;;;;;;;;;;5104252;28;20184;-63
2022/12/12 09:51:35;;;;;;;6.30;5.70;;;;;;;;;;5109338;28;20646;-62
2022/12/12 09:54:02;;;;;;;9.48;6.80;;;;;;;;;;5114381;28;20193;-62
2022/12/12 09:56:32;;;;;;;6.30;5.70;;;;;;;;;;5114394;28;20193;-67
2022/12/12 09:59:01;;;;;;;6.45;5.85;;;;;;;;;;5102453;28;20272;-67
2022/12/12 10:01:31;;;;;;;5.97;4.90;;;;;;;;;;5103554;28;20217;-67
2022/12/12 10:04:04;;;;;;;6.60;5.90;;;;;;;;;;5104634;28;20185;-78
2022/12/12 10:06:34;;;;;;;6.25;5.57;;;;;;;;;;5104038;28;20189;-61
2022/12/12 10:09:07;;;;;;;6.80;6.00;;;;;;;;;;5102729;28;20192;-67
2022/12/12 10:11:53;;;;;;;7.65;6.80;;;;;;;;;;5102613;28;20212;-65
2022/12/12 10:14:23;;;;;;;6.63;5.90;;;;;;;;;;5104202;28;20177;-68
2022/12/12 10:16:51;;;;;;;6.70;6.00;;;;;;;;;;5098991;28;20559;-70
2022/12/12 10:19:19;;;;;;;5.50;5.00;;;;;;;;;;5093545;28;20188;-72
2022/12/12 10:21:49;;;;;;;6.05;5.50;;;;;;;;;;5093705;28;20197;-60
2022/12/12 10:24:25;;;;;;;6.22;5.00;;;;;;;;;;5098470;28;20226;-68
2022/12/12 10:26:53;;;;;;;7.43;5.82;;;;;;;;;;5103079;28;20181;-68
2022/12/12 10:29:21;;;;;;;6.30;5.68;;;;;;;;;;5105067;28;20191;-62
2022/12/12 10:31:52;;;;;;;6.05;5.05;;;;;;;;;;5106035;28;20613;-61
2022/12/12 10:34:25;;;;;;;5.97;5.20;;;;;;;;;;5104804;28;20490;-61
2022/12/12 10:37:10;;;;;;;6.50;5.90;;;;;;;;;;5092942;28;20551;-68
2022/12/12 10:39:43;;;;;;;4.47;4.07;;;;;;;;;;5098754;28;20525;-59
2022/12/12 10:42:15;;;;;;;5.47;4.35;;;;;;;;;;5102598;28;20200;-60
2022/12/12 10:44:58;;;;;;;5.35;3.92;;;;;;;;;;5101947;28;20265;-60
2022/12/12 10:47:26;;;;;;;4.95;4.45;;;;;;;;;;5101621;28;20209;-58
2022/12/12 10:49:55;;;;;;;4.55;4.15;;;;;;;;;;5102808;28;20603;-64
2022/12/12 10:52:23;;;;;;;4.75;4.28;;;;;;;;;;5098235;28;20273;-73
2022/12/12 10:54:52;;;;;;;4.63;4.22;;;;;;;;;;5131288;27;20189;-71
2022/12/12 10:57:21;;;;;;;4.97;4.45;;;;;;;;;;5102899;28;20182;-60
2022/12/12 10:59:49;;;;;;;4.32;3.92;;;;;;;;;;5104187;28;20258;-61
2022/12/12 11:02:26;;;;;;;3.95;3.65;;;;;;;;;;5101907;28;20271;-60
2022/12/12 11:04:58;;;;;;;4.75;4.35;;;;;;;;;;5102463;28;20186;-66
2022/12/12 11:07:26;;;;;;;5.03;4.53;;;;;;;;;;5092719;28;20276;-60
2022/12/12 11:09:54;;;;;;;4.10;3.67;;;;;;;;;;5100792;28;20275;-60
2022/12/12 11:12:21;;;;;;;4.78;4.38;;;;;;;;;;5101330;28;20555;-60
2022/12/12 11:14:49;;;;;;;4.47;3.53;;;;;;;;;;5102542;28;20267;-60
2022/12/12 11:17:21;;;;;;;3.63;3.35;;;;;;;;;;5103270;28;20230;-75
2022/12/12 11:19:48;;;;;;;4.32;3.92;;;;;;;;;;5102378;28;20177;-60
2022/12/12 11:22:16;;;;;;;5.63;5.05;;;;;;;;;;5095546;28;20897;-60
2022/12/12 11:24:45;;;;;;;4.82;4.32;;;;;;;;;;5101167;28;20683;-61
2022/12/12 11:27:20;;;;;;;8.43;5.25;;;;;;;;;;5096923;28;20275;-60
2022/12/12 11:29:48;;;;;;;7.90;6.30;;;;;;;;;;5096558;28;20211;-61
2022/12/12 11:32:17;;;;;;;4.47;4.05;;;;;;;;;;5096567;28;20607;-61
2022/12/12 11:34:46;;;;;;;3.78;3.47;;;;;;;;;;5096663;28;20265;-63
2022/12/12 11:37:16;;;;;;;5.50;5.00;;;;;;;;;;5096554;28;20288;-63
2022/12/12 11:39:46;;;;;;;7.00;5.82;;;;;;;;;;5096580;28;20272;-61
2022/12/12 11:42:20;;;;;;;4.45;4.05;;;;;;;;;;5096445;28;20732;-61
2022/12/12 11:44:56;;;;;;;4.40;4.00;;;;;;;;;;5096356;28;20211;-66
2022/12/12 11:47:25;;;;;;;7.57;4.53;;;;;;;;;;5096161;28;20579;-60
2022/12/12 11:49:53;;;;;;;5.13;4.22;;;;;;;;;;5099043;28;20719;-63
2022/12/12 11:52:20;;;;;;;5.53;4.95;;;;;;;;;;5106016;28;20213;-66
2022/12/12 11:54:49;;;;;;;3.72;3.42;;;;;;;;;;5104841;28;20699;-65
2022/12/12 11:57:18;;;;;;;4.15;3.78;;;;;;;;;;5105920;28;20196;-64
2022/12/12 12:00:03;;;;;;;4.65;3.38;;;;;;;;;;5099892;28;20275;-67
2022/12/12 12:02:46;;;;;;;3.85;3.55;;;;;;;;;;5096160;28;20197;-66
2022/12/12 12:05:18;;;;;;;6.60;3.58;;;;;;;;;;5095921;28;20280;-65
2022/12/12 12:07:55;;;;;;;3.80;3.30;;;;;;;;;;5104507;28;20287;-66
2022/12/12 12:10:32;;;;;;;5.20;3.90;;;;;;;;;;5105146;28;20607;-65
2022/12/12 12:13:04;;;;;;;3.40;3.15;;;;;;;;;;5099256;28;20665;-68
2022/12/12 12:15:34;;;;;;;4.60;3.55;;;;;;;;;;5105659;28;20274;-66
2022/12/12 12:18:07;;;;;;;4.25;3.95;;;;;;;;;;5106609;28;20271;-64
2022/12/12 12:20:43;;;;;;;4.78;4.35;;;;;;;;;;5105958;28;20276;-65
2022/12/12 12:23:14;;;;;;;6.05;4.50;;;;;;;;;;5105722;28;20184;-63
2022/12/12 12:25:48;;;;;;;4.32;3.95;;;;;;;;;;5104070;28;20272;-62
2022/12/12 12:28:30;;;;;;;3.72;3.42;;;;;;;;;;5099425;28;20603;-65
2022/12/12 12:31:01;;;;;;;3.72;3.42;;;;;;;;;;5095383;28;20304;-62
2022/12/12 12:33:34;;;;;;;4.28;3.90;;;;;;;;;;5095375;28;20282;-63
2022/12/12 12:36:06;;;;;;;3.35;3.15;;;;;;;;;;5094288;28;20227;-65
2022/12/12 12:38:44;;;;;;;4.38;3.85;;;;;;;;;;5093897;28;20196;-62
2022/12/12 12:41:21;;;;;;;5.32;4.30;;;;;;;;;;5095203;28;20279;-61
2022/12/12 12:43:53;;;;;;;5.30;4.80;;;;;;;;;;5094675;28;20644;-63
2022/12/12 12:46:24;;;;;;;6.28;5.40;;;;;;;;;;5095137;28;20217;-63
2022/12/12 12:48:53;;;;;;;5.03;4.53;;;;;;;;;;5094963;28;20203;-62
2022/12/12 12:51:22;;;;;;;6.13;5.53;;;;;;;;;;5095030;28;20580;-62
2022/12/12 12:53:50;;;;;;;7.22;6.28;;;;;;;;;;5095408;28;20189;-61
2022/12/12 12:56:20;;;;;;;6.75;6.10;;;;;;;;;;5095072;28;20189;-60
2022/12/12 12:58:49;;;;;;;7.80;6.13;;;;;;;;;;5095257;28;20195;-67
2022/12/12 13:01:18;;;;;;;6.25;5.75;;;;;;;;;;5095278;28;20196;-69
2022/12/12 13:03:48;;;;;;;6.03;5.43;;;;;;;;;;5095073;28;20192;-65
2022/12/12 13:06:19;;;;;;;6.03;5.47;;;;;;;;;;5095506;28;20185;-63
2022/12/12 13:08:50;;;;;;;5.82;5.22;;;;;;;;;;5095075;28;20193;-64
2022/12/12 13:11:20;;;;;;;5.55;4.75;;;;;;;;;;5094974;28;20213;-60
2022/12/12 13:13:49;;;;;;;6.82;4.88;;;;;;;;;;5094938;28;20189;-60
2022/12/12 13:16:17;;;;;;;5.50;4.88;;;;;;;;;;5094646;28;20195;-58
2022/12/12 13:18:45;;;;;;;4.60;4.10;;;;;;;;;;5094817;28;20211;-60
2022/12/12 13:21:18;;;;;;;3.92;3.55;;;;;;;;;;5094883;28;20311;-60
2022/12/12 13:23:53;;;;;;;5.10;4.60;;;;;;;;;;5094831;28;20189;-60
2022/12/12 13:26:24;;;;;;;8.32;6.57;;;;;;;;;;5095212;28;20268;-60
2022/12/12 13:28:54;;;;;;;6.35;5.70;;;;;;;;;;5103572;28;20192;-61
2022/12/12 13:31:29;;;;;;;5.50;4.40;;;;;;;;;;5094518;28;20213;-59
2022/12/12 13:33:57;;;;;;;4.57;4.18;;;;;;;;;;5094399;28;20521;-61
2022/12/12 13:36:25;;;;;;;4.20;3.80;;;;;;;;;;5094289;28;20278;-63
2022/12/12 13:38:53;;;;;;;6.18;3.85;;;;;;;;;;5094288;28;20275;-61
2022/12/12 13:41:20;;;;;;;6.72;4.85;;;;;;;;;;5094339;28;20279;-63
2022/12/12 13:43:47;;;;;;;5.00;4.60;;;;;;;;;;5094512;28;20266;-66
2022/12/12 13:46:38;;;;;;;5.45;4.13;;;;;;;;;;5093744;28;20248;-65
2022/12/12 13:49:23;;;;;;;4.65;4.18;;;;;;;;;;5073929;28;20184;-63
2022/12/12 13:51:50;;;;;;;7.22;5.75;;;;;;;;;;5094008;28;20217;-68
2022/12/12 13:54:35;;;;;;;5.70;4.90;;;;;;;;;;5094183;28;20324;-68
2022/12/12 13:57:06;;;;;;;4.57;4.05;;;;;;;;;;5093880;28;20284;-70
2022/12/12 13:59:53;;;;;;;4.60;4.20;;;;;;;;;;5093742;28;20190;-69
2022/12/12 14:02:28;;;;;;;5.07;4.57;;;;;;;;;;5094113;28;20227;-61
2022/12/12 14:05:08;;;;;;;4.43;4.00;;;;;;;;;;5093704;28;20287;-61
2022/12/12 14:07:35;;;;;;;3.90;3.50;;;;;;;;;;5093476;28;20677;-61
2022/12/12 14:10:15;;;;;;;4.22;3.85;;;;;;;;;;5093789;28;20723;-61
2022/12/12 14:12:42;;;;;;;4.70;4.30;;;;;;;;;;5093634;28;20231;-61
2022/12/12 14:15:18;;;;;;;4.30;3.90;;;;;;;;;;5093843;28;20193;-61
2022/12/12 14:17:52;;;;;;;4.28;3.88;;;;;;;;;;5093836;28;20193;-61
2022/12/12 14:20:25;;;;;;;5.00;4.50;;;;;;;;;;5093729;28;20284;-61
2022/12/12 14:23:09;;;;;;;4.28;3.88;;;;;;;;;;5093645;28;20196;-61
2022/12/12 14:25:37;;;;;;;3.53;3.22;;;;;;;;;;5093714;28;20184;-61
2022/12/12 14:28:14;;;;;;;3.83;3.40;;;;;;;;;;5093468;28;20725;-61
2022/12/12 14:30:49;;;;;;;5.50;4.18;;;;;;;;;;5093514;28;20192;-61
2022/12/12 14:33:37;;;;;;;4.28;3.60;;;;;;;;;;5093425;28;20546;-61
2022/12/12 14:36:25;;;;;;;3.92;3.60;;;;;;;;;;5086979;28;20292;-61
2022/12/12 14:38:56;;;;;;;4.40;3.95;;;;;;;;;;5093374;28;20276;-61
2022/12/12 14:41:28;;;;;;;6.85;4.00;;;;;;;;;;5093506;28;20424;-61
2022/12/12 14:43:57;;;;;;;5.18;4.20;;;;;;;;;;5093633;28;20535;-61
2022/12/12 14:46:24;;;;;;;5.18;4.20;;;;;;;;;;5093261;28;20317;-60
2022/12/12 14:49:02;;;;;;;4.20;3.80;;;;;;;;;;5092658;28;20576;-59
2022/12/12 14:51:32;;;;;;;4.40;4.00;;;;;;;;;;5093239;28;20575;-59
2022/12/12 14:53:59;;;;;;;4.22;3.92;;;;;;;;;;5093093;28;20193;-60
2022/12/12 14:56:30;;;;;;;5.00;4.50;;;;;;;;;;5093084;28;20566;-60
2022/12/12 14:58:58;;;;;;;4.70;4.30;;;;;;;;;;5092583;28;20578;-60
2022/12/12 15:01:29;;;;;;;5.43;4.93;;;;;;;;;;5093171;28;20249;-60